sensor_id;sensor_type;location;lat;lon;timestamp;P1;durP1;ratioP1;P2;durP2;ratioP2
22005;SDS011;11167;46.988;15.470;2023-06-26T00:01:22;7.10;;;6.40;;
22005;SDS011;11167;46.988;15.470;2023-06-26T00:03:23;8.20;;;6.50;;
22005;SDS011;11167;46.988;15.470;2023-06-26T00:05:25;6.72;;;6.08;;
22005;SDS011;11167;46.988;15.470;2023-06-26T00:07:30;6.53;;;5.90;;
22005;SDS011;11167;46.988;15.470;2023-06-26T00:09:33;6.65;;;6.05;;
22005;SDS011;11167;46.988;15.470;2023-06-26T00:11:35;7.95;;;6.65;;
22005;SDS011;11167;46.988;15.470;2023-06-26T00:13:36;6.87;;;6.17;;
22005;SDS011;11167;46.988;15.470;2023-06-26T00:15:37;6.97;;;6.28;;
22005;SDS011;11167;46.988;15.470;2023-06-26T00:17:38;6.67;;;6.08;;
22005;SDS011;11167;46.988;15.470;2023-06-26T00:19:39;6.90;;;6.20;;
22005;SDS011;11167;46.988;15.470;2023-06-26T00:21:40;6.47;;;5.87;;
22005;SDS011;11167;46.988;15.470;2023-06-26T00:23:43;6.90;;;6.30;;
22005;SDS011;11167;46.988;15.470;2023-06-26T00:25:44;7.42;;;6.72;;
22005;SDS011;11167;46.988;15.470;2023-06-26T00:27:46;6.85;;;6.15;;
22005;SDS011;11167;46.988;15.470;2023-06-26T00:29:47;7.25;;;6.55;;
22005;SDS011;11167;46.988;15.470;2023-06-26T00:31:48;7.03;;;6.33;;
22005;SDS011;11167;46.988;15.470;2023-06-26T00:33:49;7.22;;;6.58;;
22005;SDS011;11167;46.988;15.470;2023-06-26T00:35:50;7.40;;;6.70;;
22005;SDS011;11167;46.988;15.470;2023-06-26T00:37:51;7.08;;;6.37;;
22005;SDS011;11167;46.988;15.470;2023-06-26T00:39:52;7.15;;;6.42;;
22005;SDS011;11167;46.988;15.470;2023-06-26T00:41:53;7.47;;;6.67;;
22005;SDS011;11167;46.988;15.470;2023-06-26T00:43:55;7.10;;;6.40;;
22005;SDS011;11167;46.988;15.470;2023-06-26T00:45:56;6.97;;;6.28;;
22005;SDS011;11167;46.988;15.470;2023-06-26T00:47:57;6.65;;;5.97;;
22005;SDS011;11167;46.988;15.470;2023-06-26T00:49:58;6.90;;;6.20;;
22005;SDS011;11167;46.988;15.470;2023-06-26T00:51:59;6.60;;;6.00;;
22005;SDS011;11167;46.988;15.470;2023-06-26T00:54:00;6.85;;;6.17;;
22005;SDS011;11167;46.988;15.470;2023-06-26T00:56:02;7.03;;;6.30;;
22005;SDS011;11167;46.988;15.470;2023-06-26T00:58:03;7.10;;;6.40;;
22005;SDS011;11167;46.988;15.470;2023-06-26T01:00:05;6.45;;;5.85;;
22005;SDS011;11167;46.988;15.470;2023-06-26T01:02:07;7.17;;;5.80;;
22005;SDS011;11167;46.988;15.470;2023-06-26T01:04:10;6.92;;;6.30;;
22005;SDS011;11167;46.988;15.470;2023-06-26T01:06:13;7.10;;;6.40;;
22005;SDS011;11167;46.988;15.470;2023-06-26T01:08:16;6.90;;;6.25;;
22005;SDS011;11167;46.988;15.470;2023-06-26T01:10:18;7.30;;;6.60;;
22005;SDS011;11167;46.988;15.470;2023-06-26T01:12:20;7.35;;;6.05;;
22005;SDS011;11167;46.988;15.470;2023-06-26T01:14:21;6.83;;;6.12;;
22005;SDS011;11167;46.988;15.470;2023-06-26T01:16:23;6.40;;;5.78;;
22005;SDS011;11167;46.988;15.470;2023-06-26T01:18:25;7.33;;;5.95;;
22005;SDS011;11167;46.988;15.470;2023-06-26T01:20:27;6.30;;;5.70;;
22005;SDS011;11167;46.988;15.470;2023-06-26T01:22:34;6.22;;;5.72;;
22005;SDS011;11167;46.988;15.470;2023-06-26T01:24:38;6.97;;;6.28;;
22005;SDS011;11167;46.988;15.470;2023-06-26T01:26:40;6.72;;;6.03;;
22005;SDS011;11167;46.988;15.470;2023-06-26T01:28:44;6.35;;;5.75;;
22005;SDS011;11167;46.988;15.470;2023-06-26T01:30:47;6.30;;;5.65;;
22005;SDS011;11167;46.988;15.470;2023-06-26T01:32:49;7.25;;;6.10;;
22005;SDS011;11167;46.988;15.470;2023-06-26T01:34:52;6.47;;;5.87;;
22005;SDS011;11167;46.988;15.470;2023-06-26T01:36:53;6.35;;;5.75;;
22005;SDS011;11167;46.988;15.470;2023-06-26T01:38:54;6.83;;;6.22;;
22005;SDS011;11167;46.988;15.470;2023-06-26T01:40:57;6.30;;;5.70;;
22005;SDS011;11167;46.988;15.470;2023-06-26T01:42:59;6.63;;;5.90;;
22005;SDS011;11167;46.988;15.470;2023-06-26T01:45:10;7.42;;;6.72;;
22005;SDS011;11167;46.988;15.470;2023-06-26T01:47:19;6.67;;;6.08;;
22005;SDS011;11167;46.988;15.470;2023-06-26T01:51:43;6.75;;;6.05;;
22005;SDS011;11167;46.988;15.470;2023-06-26T01:53:51;7.00;;;5.70;;
22005;SDS011;11167;46.988;15.470;2023-06-26T01:56:03;7.12;;;6.42;;
22005;SDS011;11167;46.988;15.470;2023-06-26T01:58:02;7.05;;;6.35;;
22005;SDS011;11167;46.988;15.470;2023-06-26T02:00:04;6.80;;;6.20;;
22005;SDS011;11167;46.988;15.470;2023-06-26T02:02:09;6.40;;;5.75;;
22005;SDS011;11167;46.988;15.470;2023-06-26T02:04:10;6.45;;;5.85;;
22005;SDS011;11167;46.988;15.470;2023-06-26T02:06:11;6.85;;;6.17;;
22005;SDS011;11167;46.988;15.470;2023-06-26T02:08:13;7.30;;;6.60;;
22005;SDS011;11167;46.988;15.470;2023-06-26T02:10:16;6.62;;;6.03;;
22005;SDS011;11167;46.988;15.470;2023-06-26T02:12:17;6.40;;;5.80;;
22005;SDS011;11167;46.988;15.470;2023-06-26T02:14:18;6.85;;;6.25;;
22005;SDS011;11167;46.988;15.470;2023-06-26T02:16:19;6.20;;;5.60;;
22005;SDS011;11167;46.988;15.470;2023-06-26T02:18:20;6.65;;;5.97;;
22005;SDS011;11167;46.988;15.470;2023-06-26T02:20:22;6.95;;;6.35;;
22005;SDS011;11167;46.988;15.470;2023-06-26T02:22:24;6.42;;;5.83;;
22005;SDS011;11167;46.988;15.470;2023-06-26T02:24:25;6.72;;;6.12;;
22005;SDS011;11167;46.988;15.470;2023-06-26T02:26:28;7.30;;;6.23;;
22005;SDS011;11167;46.988;15.470;2023-06-26T02:28:29;7.03;;;5.83;;
22005;SDS011;11167;46.988;15.470;2023-06-26T02:30:31;6.25;;;5.65;;
22005;SDS011;11167;46.988;15.470;2023-06-26T02:32:32;6.70;;;6.00;;
22005;SDS011;11167;46.988;15.470;2023-06-26T02:34:34;6.78;;;6.08;;
22005;SDS011;11167;46.988;15.470;2023-06-26T02:36:35;6.75;;;6.08;;
22005;SDS011;11167;46.988;15.470;2023-06-26T02:38:37;6.15;;;5.50;;
22005;SDS011;11167;46.988;15.470;2023-06-26T02:40:38;6.50;;;5.90;;
22005;SDS011;11167;46.988;15.470;2023-06-26T02:42:39;7.03;;;6.12;;
22005;SDS011;11167;46.988;15.470;2023-06-26T02:44:40;7.20;;;6.30;;
22005;SDS011;11167;46.988;15.470;2023-06-26T02:46:41;7.05;;;6.35;;
22005;SDS011;11167;46.988;15.470;2023-06-26T02:48:42;7.95;;;5.95;;
22005;SDS011;11167;46.988;15.470;2023-06-26T02:50:44;8.00;;;6.25;;
22005;SDS011;11167;46.988;15.470;2023-06-26T02:52:47;6.70;;;6.10;;
22005;SDS011;11167;46.988;15.470;2023-06-26T02:54:49;5.95;;;5.30;;
22005;SDS011;11167;46.988;15.470;2023-06-26T02:56:50;6.15;;;5.62;;
22005;SDS011;11167;46.988;15.470;2023-06-26T02:58:52;6.78;;;6.17;;
22005;SDS011;11167;46.988;15.470;2023-06-26T03:00:53;6.45;;;5.78;;
22005;SDS011;11167;46.988;15.470;2023-06-26T03:02:54;6.83;;;6.12;;
22005;SDS011;11167;46.988;15.470;2023-06-26T03:04:55;6.20;;;5.60;;
22005;SDS011;11167;46.988;15.470;2023-06-26T03:06:58;6.33;;;5.72;;
22005;SDS011;11167;46.988;15.470;2023-06-26T03:08:59;6.67;;;6.08;;
22005;SDS011;11167;46.988;15.470;2023-06-26T03:11:00;6.92;;;6.28;;
22005;SDS011;11167;46.988;15.470;2023-06-26T03:13:01;5.90;;;5.30;;
22005;SDS011;11167;46.988;15.470;2023-06-26T03:15:02;6.90;;;6.20;;
22005;SDS011;11167;46.988;15.470;2023-06-26T03:17:04;7.05;;;5.72;;
22005;SDS011;11167;46.988;15.470;2023-06-26T03:19:06;6.47;;;5.87;;
22005;SDS011;11167;46.988;15.470;2023-06-26T03:21:08;6.05;;;5.45;;
22005;SDS011;11167;46.988;15.470;2023-06-26T03:23:09;7.78;;;5.80;;
22005;SDS011;11167;46.988;15.470;2023-06-26T03:25:11;6.97;;;5.90;;
22005;SDS011;11167;46.988;15.470;2023-06-26T03:27:12;5.58;;;5.08;;
22005;SDS011;11167;46.988;15.470;2023-06-26T03:29:13;6.37;;;5.78;;
22005;SDS011;11167;46.988;15.470;2023-06-26T03:31:14;6.30;;;5.70;;
22005;SDS011;11167;46.988;15.470;2023-06-26T03:33:15;5.97;;;5.37;;
22005;SDS011;11167;46.988;15.470;2023-06-26T03:35:16;6.00;;;5.40;;
22005;SDS011;11167;46.988;15.470;2023-06-26T03:37:17;6.90;;;6.20;;
22005;SDS011;11167;46.988;15.470;2023-06-26T03:39:18;6.55;;;5.95;;
22005;SDS011;11167;46.988;15.470;2023-06-26T03:41:19;6.87;;;6.17;;
22005;SDS011;11167;46.988;15.470;2023-06-26T03:43:20;6.85;;;6.15;;
22005;SDS011;11167;46.988;15.470;2023-06-26T03:45:22;7.30;;;5.75;;
22005;SDS011;11167;46.988;15.470;2023-06-26T03:47:23;6.60;;;5.90;;
22005;SDS011;11167;46.988;15.470;2023-06-26T03:49:24;6.42;;;5.60;;
22005;SDS011;11167;46.988;15.470;2023-06-26T03:51:25;6.70;;;6.08;;
22005;SDS011;11167;46.988;15.470;2023-06-26T03:53:26;6.87;;;5.65;;
22005;SDS011;11167;46.988;15.470;2023-06-26T03:55:27;7.00;;;6.17;;
22005;SDS011;11167;46.988;15.470;2023-06-26T03:57:28;7.58;;;6.75;;
22005;SDS011;11167;46.988;15.470;2023-06-26T03:59:29;6.95;;;6.20;;
22005;SDS011;11167;46.988;15.470;2023-06-26T04:01:30;7.08;;;6.37;;
22005;SDS011;11167;46.988;15.470;2023-06-26T04:03:32;7.03;;;6.20;;
22005;SDS011;11167;46.988;15.470;2023-06-26T04:05:34;7.15;;;6.28;;
22005;SDS011;11167;46.988;15.470;2023-06-26T04:07:37;7.37;;;6.67;;
22005;SDS011;11167;46.988;15.470;2023-06-26T04:09:38;8.40;;;6.30;;
22005;SDS011;11167;46.988;15.470;2023-06-26T04:11:39;6.58;;;5.65;;
22005;SDS011;11167;46.988;15.470;2023-06-26T04:13:40;6.70;;;5.92;;
22005;SDS011;11167;46.988;15.470;2023-06-26T04:15:42;6.67;;;6.08;;
22005;SDS011;11167;46.988;15.470;2023-06-26T04:17:43;7.03;;;5.97;;
22005;SDS011;11167;46.988;15.470;2023-06-26T04:19:44;7.42;;;5.90;;
22005;SDS011;11167;46.988;15.470;2023-06-26T04:21:44;6.83;;;5.92;;
22005;SDS011;11167;46.988;15.470;2023-06-26T04:23:46;7.22;;;6.20;;
22005;SDS011;11167;46.988;15.470;2023-06-26T04:25:48;6.75;;;6.15;;
22005;SDS011;11167;46.988;15.470;2023-06-26T04:27:49;6.60;;;6.00;;
22005;SDS011;11167;46.988;15.470;2023-06-26T04:29:50;6.10;;;5.50;;
22005;SDS011;11167;46.988;15.470;2023-06-26T04:31:51;7.33;;;6.30;;
22005;SDS011;11167;46.988;15.470;2023-06-26T04:33:53;5.92;;;5.33;;
22005;SDS011;11167;46.988;15.470;2023-06-26T04:35:55;6.85;;;6.17;;
22005;SDS011;11167;46.988;15.470;2023-06-26T04:37:56;6.72;;;5.85;;
22005;SDS011;11167;46.988;15.470;2023-06-26T04:39:57;6.70;;;5.83;;
22005;SDS011;11167;46.988;15.470;2023-06-26T04:41:58;6.80;;;6.10;;
22005;SDS011;11167;46.988;15.470;2023-06-26T04:43:59;6.25;;;5.65;;
22005;SDS011;11167;46.988;15.470;2023-06-26T04:46:02;6.03;;;5.42;;
22005;SDS011;11167;46.988;15.470;2023-06-26T04:48:03;6.55;;;5.87;;
22005;SDS011;11167;46.988;15.470;2023-06-26T04:50:06;6.78;;;6.08;;
22005;SDS011;11167;46.988;15.470;2023-06-26T04:52:09;6.30;;;5.70;;
22005;SDS011;11167;46.988;15.470;2023-06-26T04:54:11;6.55;;;5.95;;
22005;SDS011;11167;46.988;15.470;2023-06-26T04:56:12;7.25;;;6.30;;
22005;SDS011;11167;46.988;15.470;2023-06-26T04:58:13;5.90;;;5.37;;
22005;SDS011;11167;46.988;15.470;2023-06-26T05:00:14;7.50;;;5.92;;
22005;SDS011;11167;46.988;15.470;2023-06-26T05:02:15;6.53;;;5.83;;
22005;SDS011;11167;46.988;15.470;2023-06-26T05:04:17;6.90;;;6.20;;
22005;SDS011;11167;46.988;15.470;2023-06-26T05:06:18;7.12;;;6.17;;
22005;SDS011;11167;46.988;15.470;2023-06-26T05:08:22;6.65;;;5.80;;
22005;SDS011;11167;46.988;15.470;2023-06-26T05:10:26;7.10;;;6.37;;
22005;SDS011;11167;46.988;15.470;2023-06-26T05:12:27;6.50;;;5.90;;
22005;SDS011;11167;46.988;15.470;2023-06-26T05:14:29;6.72;;;6.05;;
22005;SDS011;11167;46.988;15.470;2023-06-26T05:16:30;6.33;;;5.72;;
22005;SDS011;11167;46.988;15.470;2023-06-26T05:18:31;7.35;;;6.05;;
22005;SDS011;11167;46.988;15.470;2023-06-26T05:20:32;7.37;;;6.62;;
22005;SDS011;11167;46.988;15.470;2023-06-26T05:22:33;7.28;;;6.58;;
22005;SDS011;11167;46.988;15.470;2023-06-26T05:24:37;6.97;;;6.30;;
22005;SDS011;11167;46.988;15.470;2023-06-26T05:28:41;6.90;;;6.20;;
22005;SDS011;11167;46.988;15.470;2023-06-26T05:30:44;7.47;;;6.67;;
22005;SDS011;11167;46.988;15.470;2023-06-26T05:32:46;7.62;;;6.33;;
22005;SDS011;11167;46.988;15.470;2023-06-26T05:34:49;7.42;;;6.70;;
22005;SDS011;11167;46.988;15.470;2023-06-26T05:36:57;7.22;;;6.53;;
22005;SDS011;11167;46.988;15.470;2023-06-26T05:38:59;7.47;;;6.67;;
22005;SDS011;11167;46.988;15.470;2023-06-26T05:41:01;7.22;;;6.53;;
22005;SDS011;11167;46.988;15.470;2023-06-26T05:43:02;7.90;;;7.10;;
22005;SDS011;11167;46.988;15.470;2023-06-26T05:45:04;7.28;;;6.58;;
22005;SDS011;11167;46.988;15.470;2023-06-26T05:47:05;7.58;;;6.53;;
22005;SDS011;11167;46.988;15.470;2023-06-26T05:49:06;9.53;;;7.75;;
22005;SDS011;11167;46.988;15.470;2023-06-26T05:51:08;7.85;;;7.00;;
22005;SDS011;11167;46.988;15.470;2023-06-26T05:53:10;7.65;;;6.95;;
22005;SDS011;11167;46.988;15.470;2023-06-26T05:55:12;8.75;;;7.58;;
22005;SDS011;11167;46.988;15.470;2023-06-26T05:57:13;7.95;;;7.15;;
22005;SDS011;11167;46.988;15.470;2023-06-26T05:59:17;8.78;;;7.35;;
22005;SDS011;11167;46.988;15.470;2023-06-26T06:01:19;8.10;;;7.30;;
22005;SDS011;11167;46.988;15.470;2023-06-26T06:03:20;7.65;;;6.65;;
22005;SDS011;11167;46.988;15.470;2023-06-26T06:05:21;7.33;;;6.62;;
22005;SDS011;11167;46.988;15.470;2023-06-26T06:07:22;7.58;;;6.80;;
22005;SDS011;11167;46.988;15.470;2023-06-26T06:09:24;7.08;;;6.35;;
22005;SDS011;11167;46.988;15.470;2023-06-26T06:11:25;7.37;;;6.58;;
22005;SDS011;11167;46.988;15.470;2023-06-26T06:13:26;7.78;;;6.97;;
22005;SDS011;11167;46.988;15.470;2023-06-26T06:15:28;7.47;;;6.78;;
22005;SDS011;11167;46.988;15.470;2023-06-26T06:17:29;7.33;;;6.62;;
22005;SDS011;11167;46.988;15.470;2023-06-26T06:19:30;7.15;;;6.45;;
22005;SDS011;11167;46.988;15.470;2023-06-26T06:21:31;8.15;;;7.15;;
22005;SDS011;11167;46.988;15.470;2023-06-26T06:23:33;7.55;;;6.78;;
22005;SDS011;11167;46.988;15.470;2023-06-26T06:25:34;6.92;;;6.22;;
22005;SDS011;11167;46.988;15.470;2023-06-26T06:27:35;7.00;;;6.30;;
22005;SDS011;11167;46.988;15.470;2023-06-26T06:29:36;7.03;;;6.33;;
22005;SDS011;11167;46.988;15.470;2023-06-26T06:31:37;7.00;;;6.30;;
22005;SDS011;11167;46.988;15.470;2023-06-26T06:33:39;8.33;;;7.05;;
22005;SDS011;11167;46.988;15.470;2023-06-26T06:35:40;7.42;;;6.58;;
22005;SDS011;11167;46.988;15.470;2023-06-26T06:37:41;9.03;;;6.95;;
22005;SDS011;11167;46.988;15.470;2023-06-26T06:39:42;7.92;;;7.20;;
22005;SDS011;11167;46.988;15.470;2023-06-26T06:41:43;7.50;;;6.80;;
22005;SDS011;11167;46.988;15.470;2023-06-26T06:43:44;7.45;;;6.65;;
22005;SDS011;11167;46.988;15.470;2023-06-26T06:45:45;7.20;;;6.50;;
22005;SDS011;11167;46.988;15.470;2023-06-26T06:47:47;6.75;;;6.15;;
22005;SDS011;11167;46.988;15.470;2023-06-26T06:49:48;7.58;;;6.67;;
22005;SDS011;11167;46.988;15.470;2023-06-26T06:51:49;7.10;;;6.40;;
22005;SDS011;11167;46.988;15.470;2023-06-26T06:53:50;7.72;;;6.92;;
22005;SDS011;11167;46.988;15.470;2023-06-26T06:55:51;7.33;;;6.22;;
22005;SDS011;11167;46.988;15.470;2023-06-26T06:57:52;6.65;;;5.95;;
22005;SDS011;11167;46.988;15.470;2023-06-26T06:59:53;7.55;;;6.30;;
22005;SDS011;11167;46.988;15.470;2023-06-26T07:01:54;8.08;;;6.42;;
22005;SDS011;11167;46.988;15.470;2023-06-26T07:03:55;7.28;;;6.37;;
22005;SDS011;11167;46.988;15.470;2023-06-26T07:05:56;7.58;;;6.25;;
22005;SDS011;11167;46.988;15.470;2023-06-26T07:07:57;6.40;;;5.80;;
22005;SDS011;11167;46.988;15.470;2023-06-26T07:10:03;7.58;;;6.37;;
22005;SDS011;11167;46.988;15.470;2023-06-26T07:12:24;6.90;;;6.20;;
22005;SDS011;11167;46.988;15.470;2023-06-26T07:14:25;7.67;;;6.85;;
22005;SDS011;11167;46.988;15.470;2023-06-26T07:16:26;7.90;;;6.58;;
22005;SDS011;11167;46.988;15.470;2023-06-26T07:18:27;7.10;;;6.40;;
22005;SDS011;11167;46.988;15.470;2023-06-26T07:20:29;7.87;;;6.25;;
22005;SDS011;11167;46.988;15.470;2023-06-26T07:22:29;7.90;;;6.05;;
22005;SDS011;11167;46.988;15.470;2023-06-26T07:24:30;7.08;;;6.37;;
22005;SDS011;11167;46.988;15.470;2023-06-26T07:26:32;7.97;;;6.12;;
22005;SDS011;11167;46.988;15.470;2023-06-26T07:28:34;8.05;;;6.47;;
22005;SDS011;11167;46.988;15.470;2023-06-26T07:30:35;7.00;;;6.25;;
22005;SDS011;11167;46.988;15.470;2023-06-26T07:32:36;7.78;;;6.62;;
22005;SDS011;11167;46.988;15.470;2023-06-26T07:34:37;7.22;;;6.30;;
22005;SDS011;11167;46.988;15.470;2023-06-26T07:36:38;7.42;;;6.67;;
22005;SDS011;11167;46.988;15.470;2023-06-26T07:38:39;6.92;;;6.20;;
22005;SDS011;11167;46.988;15.470;2023-06-26T07:40:40;8.23;;;6.42;;
22005;SDS011;11167;46.988;15.470;2023-06-26T07:42:41;7.45;;;6.08;;
22005;SDS011;11167;46.988;15.470;2023-06-26T07:44:42;7.55;;;6.70;;
22005;SDS011;11167;46.988;15.470;2023-06-26T07:46:44;7.78;;;6.33;;
22005;SDS011;11167;46.988;15.470;2023-06-26T07:48:45;7.17;;;6.47;;
22005;SDS011;11167;46.988;15.470;2023-06-26T07:50:46;7.62;;;6.65;;
22005;SDS011;11167;46.988;15.470;2023-06-26T07:52:47;8.70;;;6.95;;
22005;SDS011;11167;46.988;15.470;2023-06-26T07:54:48;8.60;;;7.20;;
22005;SDS011;11167;46.988;15.470;2023-06-26T07:58:58;8.03;;;7.12;;
22005;SDS011;11167;46.988;15.470;2023-06-26T08:01:01;7.50;;;6.80;;
22005;SDS011;11167;46.988;15.470;2023-06-26T08:03:02;7.35;;;6.65;;
22005;SDS011;11167;46.988;15.470;2023-06-26T08:05:03;7.70;;;6.90;;
22005;SDS011;11167;46.988;15.470;2023-06-26T08:07:04;6.90;;;6.17;;
22005;SDS011;11167;46.988;15.470;2023-06-26T08:09:06;7.33;;;6.62;;
22005;SDS011;11167;46.988;15.470;2023-06-26T08:11:10;7.78;;;6.97;;
22005;SDS011;11167;46.988;15.470;2023-06-26T08:13:11;7.90;;;7.00;;
22005;SDS011;11167;46.988;15.470;2023-06-26T08:15:13;7.75;;;6.95;;
22005;SDS011;11167;46.988;15.470;2023-06-26T08:17:14;7.40;;;6.60;;
22005;SDS011;11167;46.988;15.470;2023-06-26T08:19:16;7.95;;;7.17;;
22005;SDS011;11167;46.988;15.470;2023-06-26T08:21:17;7.08;;;6.37;;
22005;SDS011;11167;46.988;15.470;2023-06-26T08:23:19;8.23;;;7.12;;
22005;SDS011;11167;46.988;15.470;2023-06-26T08:25:22;7.60;;;6.90;;
22005;SDS011;11167;46.988;15.470;2023-06-26T08:27:23;7.42;;;6.72;;
22005;SDS011;11167;46.988;15.470;2023-06-26T08:29:24;7.33;;;6.60;;
22005;SDS011;11167;46.988;15.470;2023-06-26T08:31:25;7.62;;;6.65;;
22005;SDS011;11167;46.988;15.470;2023-06-26T08:33:26;7.58;;;6.33;;
22005;SDS011;11167;46.988;15.470;2023-06-26T08:35:27;7.50;;;6.75;;
22005;SDS011;11167;46.988;15.470;2023-06-26T08:37:28;7.50;;;6.80;;
22005;SDS011;11167;46.988;15.470;2023-06-26T08:39:29;7.03;;;6.33;;
22005;SDS011;11167;46.988;15.470;2023-06-26T08:41:30;6.92;;;6.22;;
22005;SDS011;11167;46.988;15.470;2023-06-26T08:43:32;7.33;;;6.62;;
22005;SDS011;11167;46.988;15.470;2023-06-26T08:45:33;7.00;;;6.30;;
22005;SDS011;11167;46.988;15.470;2023-06-26T08:47:35;6.60;;;5.95;;
22005;SDS011;11167;46.988;15.470;2023-06-26T08:49:43;6.93;;;6.27;;
22005;SDS011;11167;46.988;15.470;2023-06-26T08:51:56;7.05;;;6.35;;
22005;SDS011;11167;46.988;15.470;2023-06-26T08:53:59;7.05;;;6.35;;
22005;SDS011;11167;46.988;15.470;2023-06-26T08:56:01;7.08;;;6.37;;
22005;SDS011;11167;46.988;15.470;2023-06-26T08:58:03;6.92;;;6.25;;
22005;SDS011;11167;46.988;15.470;2023-06-26T09:00:05;6.33;;;5.72;;
22005;SDS011;11167;46.988;15.470;2023-06-26T09:02:09;6.45;;;5.85;;
22005;SDS011;11167;46.988;15.470;2023-06-26T09:04:11;7.22;;;6.53;;
22005;SDS011;11167;46.988;15.470;2023-06-26T09:06:12;6.60;;;6.00;;
22005;SDS011;11167;46.988;15.470;2023-06-26T09:08:14;7.22;;;6.53;;
22005;SDS011;11167;46.988;15.470;2023-06-26T09:10:15;7.20;;;6.50;;
22005;SDS011;11167;46.988;15.470;2023-06-26T09:12:16;6.40;;;5.80;;
22005;SDS011;11167;46.988;15.470;2023-06-26T09:14:17;6.47;;;5.72;;
22005;SDS011;11167;46.988;15.470;2023-06-26T09:16:23;6.95;;;6.20;;
22005;SDS011;11167;46.988;15.470;2023-06-26T09:18:29;6.85;;;6.15;;
22005;SDS011;11167;46.988;15.470;2023-06-26T09:20:30;6.90;;;6.20;;
22005;SDS011;11167;46.988;15.470;2023-06-26T09:22:34;6.55;;;5.90;;
22005;SDS011;11167;46.988;15.470;2023-06-26T09:26:38;6.28;;;5.67;;
22005;SDS011;11167;46.988;15.470;2023-06-26T09:28:41;6.53;;;5.92;;
22005;SDS011;11167;46.988;15.470;2023-06-26T09:30:44;6.83;;;6.17;;
22005;SDS011;11167;46.988;15.470;2023-06-26T09:32:48;6.58;;;5.92;;
22005;SDS011;11167;46.988;15.470;2023-06-26T09:34:52;6.42;;;5.80;;
22005;SDS011;11167;46.988;15.470;2023-06-26T09:36:56;6.37;;;5.78;;
22005;SDS011;11167;46.988;15.470;2023-06-26T09:38:57;6.17;;;5.58;;
22005;SDS011;11167;46.988;15.470;2023-06-26T09:40:58;6.85;;;6.22;;
22005;SDS011;11167;46.988;15.470;2023-06-26T09:43:03;6.17;;;5.58;;
22005;SDS011;11167;46.988;15.470;2023-06-26T09:45:05;5.97;;;5.37;;
22005;SDS011;11167;46.988;15.470;2023-06-26T09:47:06;6.60;;;5.95;;
22005;SDS011;11167;46.988;15.470;2023-06-26T09:49:08;6.00;;;5.40;;
22005;SDS011;11167;46.988;15.470;2023-06-26T09:51:13;5.97;;;5.40;;
22005;SDS011;11167;46.988;15.470;2023-06-26T09:53:17;6.40;;;5.80;;
22005;SDS011;11167;46.988;15.470;2023-06-26T09:55:19;6.17;;;5.58;;
22005;SDS011;11167;46.988;15.470;2023-06-26T09:57:22;6.35;;;5.70;;
22005;SDS011;11167;46.988;15.470;2023-06-26T09:59:23;6.05;;;5.45;;
22005;SDS011;11167;46.988;15.470;2023-06-26T10:01:25;6.20;;;5.60;;
22005;SDS011;11167;46.988;15.470;2023-06-26T10:03:27;5.95;;;5.42;;
22005;SDS011;11167;46.988;15.470;2023-06-26T10:05:28;6.92;;;6.03;;
22005;SDS011;11167;46.988;15.470;2023-06-26T10:07:29;6.08;;;5.47;;
22005;SDS011;11167;46.988;15.470;2023-06-26T10:09:31;6.03;;;5.53;;
22005;SDS011;11167;46.988;15.470;2023-06-26T10:13:44;5.92;;;5.35;;
22005;SDS011;11167;46.988;15.470;2023-06-26T10:15:47;5.90;;;5.37;;
22005;SDS011;11167;46.988;15.470;2023-06-26T10:17:51;5.70;;;5.20;;
22005;SDS011;11167;46.988;15.470;2023-06-26T10:19:54;6.22;;;5.62;;
22005;SDS011;11167;46.988;15.470;2023-06-26T10:21:56;6.25;;;5.65;;
22005;SDS011;11167;46.988;15.470;2023-06-26T10:24:00;6.10;;;5.50;;
22005;SDS011;11167;46.988;15.470;2023-06-26T10:28:06;6.30;;;5.70;;
22005;SDS011;11167;46.988;15.470;2023-06-26T10:32:12;6.40;;;5.80;;
22005;SDS011;11167;46.988;15.470;2023-06-26T10:34:15;6.83;;;6.12;;
22005;SDS011;11167;46.988;15.470;2023-06-26T10:36:17;5.87;;;5.28;;
22005;SDS011;11167;46.988;15.470;2023-06-26T10:38:21;6.28;;;5.67;;
22005;SDS011;11167;46.988;15.470;2023-06-26T10:40:24;5.60;;;5.10;;
22005;SDS011;11167;46.988;15.470;2023-06-26T10:42:35;5.95;;;5.37;;
22005;SDS011;11167;46.988;15.470;2023-06-26T10:44:41;5.85;;;5.28;;
22005;SDS011;11167;46.988;15.470;2023-06-26T10:49:00;5.95;;;5.45;;
22005;SDS011;11167;46.988;15.470;2023-06-26T10:51:12;5.65;;;5.15;;
22005;SDS011;11167;46.988;15.470;2023-06-26T10:55:31;5.50;;;4.97;;
22005;SDS011;11167;46.988;15.470;2023-06-26T10:57:29;5.90;;;5.40;;
22005;SDS011;11167;46.988;15.470;2023-06-26T11:02:00;5.37;;;4.87;;
22005;SDS011;11167;46.988;15.470;2023-06-26T11:04:07;6.03;;;5.42;;
22005;SDS011;11167;46.988;15.470;2023-06-26T11:06:09;5.45;;;4.90;;
22005;SDS011;11167;46.988;15.470;2023-06-26T11:08:12;5.35;;;4.85;;
22005;SDS011;11167;46.988;15.470;2023-06-26T11:10:15;5.80;;;5.20;;
22005;SDS011;11167;46.988;15.470;2023-06-26T11:12:32;5.97;;;5.35;;
22005;SDS011;11167;46.988;15.470;2023-06-26T11:14:30;5.95;;;5.35;;
22005;SDS011;11167;46.988;15.470;2023-06-26T11:16:32;5.95;;;5.45;;
22005;SDS011;11167;46.988;15.470;2023-06-26T11:18:34;5.60;;;5.03;;
22005;SDS011;11167;46.988;15.470;2023-06-26T11:22:49;5.62;;;5.12;;
22005;SDS011;11167;46.988;15.470;2023-06-26T11:24:53;5.50;;;5.00;;
22005;SDS011;11167;46.988;15.470;2023-06-26T11:26:55;5.60;;;5.10;;
22005;SDS011;11167;46.988;15.470;2023-06-26T11:29:00;5.45;;;4.95;;
22005;SDS011;11167;46.988;15.470;2023-06-26T11:31:02;5.55;;;5.05;;
22005;SDS011;11167;46.988;15.470;2023-06-26T11:33:09;5.75;;;5.25;;
22005;SDS011;11167;46.988;15.470;2023-06-26T11:35:07;5.10;;;4.70;;
22005;SDS011;11167;46.988;15.470;2023-06-26T11:37:10;5.55;;;5.05;;
22005;SDS011;11167;46.988;15.470;2023-06-26T11:39:12;5.10;;;4.60;;
22005;SDS011;11167;46.988;15.470;2023-06-26T11:41:16;5.37;;;4.87;;
22005;SDS011;11167;46.988;15.470;2023-06-26T11:43:19;5.83;;;5.28;;
22005;SDS011;11167;46.988;15.470;2023-06-26T11:45:21;5.58;;;5.08;;
22005;SDS011;11167;46.988;15.470;2023-06-26T11:47:22;5.28;;;4.87;;
22005;SDS011;11167;46.988;15.470;2023-06-26T11:49:23;5.05;;;4.60;;
22005;SDS011;11167;46.988;15.470;2023-06-26T11:51:27;5.78;;;5.28;;
22005;SDS011;11167;46.988;15.470;2023-06-26T11:55:50;5.47;;;4.97;;
22005;SDS011;11167;46.988;15.470;2023-06-26T11:57:56;5.37;;;4.87;;
22005;SDS011;11167;46.988;15.470;2023-06-26T11:59:54;5.12;;;4.67;;
22005;SDS011;11167;46.988;15.470;2023-06-26T12:01:55;4.92;;;4.53;;
22005;SDS011;11167;46.988;15.470;2023-06-26T12:03:58;4.92;;;4.50;;
22005;SDS011;11167;46.988;15.470;2023-06-26T12:06:01;5.20;;;4.70;;
22005;SDS011;11167;46.988;15.470;2023-06-26T12:08:04;5.30;;;4.80;;
22005;SDS011;11167;46.988;15.470;2023-06-26T12:10:07;5.35;;;4.85;;
22005;SDS011;11167;46.988;15.470;2023-06-26T12:12:13;4.95;;;4.55;;
22005;SDS011;11167;46.988;15.470;2023-06-26T12:14:16;4.95;;;4.55;;
22005;SDS011;11167;46.988;15.470;2023-06-26T12:16:19;5.33;;;4.83;;
22005;SDS011;11167;46.988;15.470;2023-06-26T12:18:20;5.35;;;4.85;;
22005;SDS011;11167;46.988;15.470;2023-06-26T12:20:23;5.43;;;4.93;;
22005;SDS011;11167;46.988;15.470;2023-06-26T12:22:33;5.50;;;5.00;;
22005;SDS011;11167;46.988;15.470;2023-06-26T12:24:32;5.50;;;5.00;;
22005;SDS011;11167;46.988;15.470;2023-06-26T12:26:33;5.47;;;4.97;;
22005;SDS011;11167;46.988;15.470;2023-06-26T12:28:36;5.17;;;4.67;;
22005;SDS011;11167;46.988;15.470;2023-06-26T12:30:38;5.30;;;4.80;;